Accueil
METAR-TAF:

METAR-TAF

Aéroports :

Tin City, Alaska, États-Unis

latitude: 65-34N, longitude: 167-55W, altitude: 83 m

Observation

Le bulletin a été fait il y a 41 minutes, à 21:55 UTC
Vent 12 kt de nord/nord-est
Température -16°C
Humidité 84%
Pression 1005 hPa
Visibilité: 16.1 km
Ciel couvert à une hauteur de 6500 ft
neige faible

METAR: PATC 222155Z AUTO 03012KT 10SM -SN OVC065 M16/M18 A2969 RMK AO2 SNB1955 SLP064 P0000 T11621177

Heure: 13:36 (22:36 UTC)


TAF: absent

Observations et prévisions météorologiques de plus de 4000 aéroports (messages METAR et TAF).

Les stations disponibles sont représentées par des disques jaunes et rouges sur la carte.

Passer la souris dessus pour voir le nom de la station.

Cliquer dessus pour voir les observations et prévisions météorologiques.

Pour changer de carte: cliquez sur les boutons verts avec une croix noire pour zoomer, sur le bouton vert avec un tiret pour effectuer un zoom arrière, ou sur les flèches vertes pour les cartes adjacentes.


METAR-TAF: